createdAt,value
2018-09-05T01:00:33.108Z,75.88
2018-09-05T01:01:33.059Z,75.78
2018-09-05T01:02:33.053Z,76.28
2018-09-05T01:03:33.076Z,75.98
2018-09-05T01:04:33.021Z,76.58
2018-09-05T01:05:33.010Z,76.78
2018-09-05T01:06:33.000Z,76.92
2018-09-05T01:07:32.990Z,77.72
2018-09-05T01:08:33.021Z,77.62
2018-09-05T01:09:32.968Z,77.62
2018-09-05T01:10:32.955Z,77.52
2018-09-05T01:11:32.941Z,77.32
2018-09-05T01:12:32.931Z,77.66
2018-09-05T01:13:32.970Z,77.12
2018-09-05T01:14:32.905Z,77.06
2018-09-05T01:15:32.899Z,77.26
2018-09-05T01:16:32.891Z,78.06
2018-09-05T01:17:32.875Z,77.36
2018-09-05T01:18:32.906Z,77.76
2018-09-05T01:19:32.895Z,77.06
2018-09-05T01:20:32.839Z,77.16
2018-09-05T01:21:32.829Z,77.26
2018-09-05T01:22:32.819Z,76.96
2018-09-05T01:23:32.805Z,77.56
2018-09-05T01:24:32.839Z,77.26
2018-09-05T01:25:32.792Z,77.26
2018-09-05T01:26:32.771Z,77.36
2018-09-05T01:27:32.765Z,77.66
2018-09-05T01:28:32.751Z,77.22
2018-09-05T01:29:32.783Z,77.12
2018-09-05T01:30:32.727Z,77.26
2018-09-05T01:31:32.718Z,77.16
2018-09-05T01:32:32.702Z,77.56
2018-09-05T01:33:32.695Z,77.46
2018-09-05T01:34:32.735Z,77.46
2018-09-05T01:35:32.673Z,77.66
2018-09-05T01:36:32.658Z,77.76
2018-09-05T01:37:32.646Z,77.16
2018-09-05T01:38:32.638Z,77.66
2018-09-05T01:39:32.670Z,77.46
2018-09-05T01:40:32.616Z,77.02
2018-09-05T01:41:32.604Z,77.46
2018-09-05T01:42:32.589Z,77.46
2018-09-05T01:43:32.583Z,77.46
2018-09-05T01:44:32.613Z,77.26
2018-09-05T01:45:32.558Z,76.86
2018-09-05T01:46:32.545Z,77.66
2018-09-05T01:47:32.533Z,77.76
2018-09-05T01:48:32.522Z,77.56
2018-09-05T01:49:32.559Z,77.96
2018-09-05T01:50:32.505Z,77.26
2018-09-05T01:51:32.489Z,77.96
2018-09-05T01:52:32.477Z,77.76
2018-09-05T01:53:32.467Z,78.27
2018-09-05T01:54:32.501Z,78.06
2018-09-05T01:55:32.445Z,77.96
2018-09-05T01:56:32.517Z,79.06
2018-09-05T01:57:32.424Z,78.97
2018-09-05T01:58:32.411Z,79.06
2018-09-05T01:59:32.443Z,78.46
2018-09-05T02:00:32.392Z,78.66
2018-09-05T02:01:32.378Z,79.67
2018-09-05T02:02:32.364Z,80.43
2018-09-05T02:03:32.358Z,80.57
2018-09-05T02:04:32.389Z,80.88
2018-09-05T02:05:32.337Z,80.98
2018-09-05T02:06:32.319Z,80.57
2018-09-05T02:07:32.309Z,80.47
2018-09-05T02:08:32.364Z,81.07
2018-09-05T02:09:32.330Z,80.98
2018-09-05T02:10:32.272Z,80.88
2018-09-05T02:11:32.262Z,81.27
2018-09-05T02:12:32.252Z,80.77
2018-09-05T02:13:32.248Z,80.68
2018-09-05T02:14:32.281Z,80.77
2018-09-05T02:15:32.216Z,81.27
2018-09-05T02:16:32.206Z,81.38
2018-09-05T02:17:32.196Z,80.88
2018-09-05T02:18:32.181Z,81.68
2018-09-05T02:19:32.216Z,81.58
2018-09-05T02:20:32.160Z,81.38
2018-09-05T02:21:32.148Z,81.38
2018-09-05T02:22:32.136Z,81.78
2018-09-05T02:23:32.128Z,82.08
2018-09-05T02:24:32.166Z,82.52
2018-09-05T02:25:32.105Z,82.62
2018-09-05T02:26:32.109Z,82.22
2018-09-05T02:27:32.079Z,82.62
2018-09-05T02:28:32.073Z,82.42
2018-09-05T02:29:32.104Z,82.42
2018-09-05T02:30:32.047Z,82.52
2018-09-05T02:31:32.040Z,82.62
2018-09-05T02:32:32.022Z,82.32
2018-09-05T02:33:32.015Z,82.42
2018-09-05T02:34:32.049Z,82.66
2018-09-05T02:35:31.990Z,82.62
2018-09-05T02:36:31.986Z,82.66
2018-09-05T02:37:31.967Z,82.46
2018-09-05T02:38:31.958Z,82.66
2018-09-05T02:39:31.997Z,82.76
2018-09-05T02:40:31.987Z,82.46
2018-09-05T02:41:31.929Z,82.66
2018-09-05T02:42:31.910Z,82.86
2018-09-05T02:43:31.900Z,83.06
2018-09-05T02:44:31.932Z,83.20
2018-09-05T02:45:31.878Z,83.40
2018-09-05T02:46:31.873Z,83.11
2018-09-05T02:47:31.853Z,83.20
2018-09-05T02:48:31.861Z,83.20
2018-09-05T02:49:31.878Z,83.20
2018-09-05T02:50:31.819Z,83.51
2018-09-05T02:51:31.809Z,83.61
2018-09-05T02:52:31.797Z,83.61
2018-09-05T02:53:31.787Z,83.31
2018-09-05T02:54:31.826Z,83.40
2018-09-05T02:55:31.768Z,83.31
2018-09-05T02:56:31.752Z,83.91
2018-09-05T02:57:31.772Z,84.21
2018-09-05T02:58:31.738Z,83.91
2018-09-05T02:59:31.776Z,84.31
2018-09-05T03:00:31.708Z,83.91
2018-09-05T03:01:31.696Z,83.75
2018-09-05T03:02:31.687Z,84.65
2018-09-05T03:03:31.676Z,84.35
2018-09-05T03:04:31.666Z,84.55
2018-09-05T03:05:31.697Z,84.45
2018-09-05T03:06:31.643Z,84.65
2018-09-05T03:07:31.628Z,84.35
2018-09-05T03:08:31.616Z,84.85
2018-09-05T03:09:31.697Z,84.75
2018-09-05T03:10:31.640Z,84.65
2018-09-05T03:11:31.581Z,84.95
2018-09-05T03:12:31.572Z,84.75
2018-09-05T03:13:31.568Z,84.55
2018-09-05T03:14:31.549Z,84.75
2018-09-05T03:15:31.585Z,84.55
2018-09-05T03:16:31.526Z,84.35
2018-09-05T03:17:31.513Z,84.35
2018-09-05T03:18:31.504Z,84.85
2018-09-05T03:19:31.494Z,85.40
2018-09-05T03:20:31.528Z,85.30
2018-09-05T03:21:31.469Z,85.40
2018-09-05T03:22:31.457Z,85.20
2018-09-05T03:23:31.505Z,85.10
2018-09-05T03:24:31.435Z,85.20
2018-09-05T03:25:31.476Z,85.40
2018-09-05T03:26:31.419Z,86.30
2018-09-05T03:27:31.403Z,85.30
2018-09-05T03:28:31.391Z,85.10
2018-09-05T03:29:31.378Z,86.21
2018-09-05T03:30:31.416Z,85.80
2018-09-05T03:31:31.359Z,85.10
2018-09-05T03:32:31.507Z,84.59
2018-09-05T03:33:31.335Z,84.75
2018-09-05T03:34:31.325Z,84.95
2018-09-05T03:35:31.356Z,85.40
2018-09-05T03:36:31.301Z,85.00
2018-09-05T03:37:31.288Z,84.95
2018-09-05T03:38:31.277Z,85.36
2018-09-05T03:39:31.267Z,84.55
2018-09-05T03:40:31.302Z,84.75
2018-09-05T03:41:31.243Z,85.20
2018-09-05T03:42:31.232Z,85.05
2018-09-05T03:43:31.223Z,85.50
2018-09-05T03:44:31.211Z,85.00
2018-09-05T03:45:31.242Z,84.89
2018-09-05T03:46:31.187Z,85.10
2018-09-05T03:47:31.180Z,84.89
2018-09-05T03:48:31.164Z,85.20
2018-09-05T03:49:31.153Z,85.40
2018-09-05T03:50:31.188Z,85.30
2018-09-05T03:51:31.132Z,85.20
2018-09-05T03:52:31.123Z,84.89
2018-09-05T03:53:31.111Z,85.30
2018-09-05T03:54:31.097Z,85.10
2018-09-05T03:55:31.131Z,85.20
2018-09-05T03:56:31.084Z,85.10
2018-09-05T03:57:31.063Z,85.20
2018-09-05T03:58:31.051Z,84.39
2018-09-05T03:59:31.043Z,84.49
2018-09-05T04:00:31.074Z,85.20
2018-09-05T04:01:31.020Z,85.00
2018-09-05T04:02:31.019Z,85.30
2018-09-05T04:03:30.994Z,86.10
2018-09-05T04:04:30.984Z,86.04
2018-09-05T04:05:31.032Z,86.04
2018-09-05T04:06:30.967Z,85.94
2018-09-05T04:07:30.951Z,86.15
2018-09-05T04:08:30.942Z,86.35
2018-09-05T04:09:30.929Z,86.24
2018-09-05T04:10:30.995Z,85.84
2018-09-05T04:11:30.972Z,86.24
2018-09-05T04:12:30.933Z,86.55
2018-09-05T04:13:30.887Z,86.75
2018-09-05T04:14:30.869Z,86.79
2018-09-05T04:15:30.907Z,86.89
2018-09-05T04:16:30.850Z,86.35
2018-09-05T04:17:30.849Z,86.55
2018-09-05T04:18:30.829Z,86.24
2018-09-05T04:19:30.815Z,86.35
2018-09-05T04:20:30.857Z,86.04
2018-09-05T04:21:30.810Z,85.84
2018-09-05T04:22:30.804Z,86.24
2018-09-05T04:23:30.772Z,86.15
2018-09-05T04:24:30.763Z,86.04
2018-09-05T04:25:30.792Z,85.90
2018-09-05T04:26:30.737Z,86.35
2018-09-05T04:27:30.724Z,86.10
2018-09-05T04:28:30.712Z,85.90
2018-09-05T04:29:30.762Z,86.24
2018-09-05T04:30:30.735Z,86.15
2018-09-05T04:31:30.699Z,86.04
2018-09-05T04:32:30.677Z,86.35
2018-09-05T04:33:30.675Z,86.35
2018-09-05T04:34:30.646Z,86.44
2018-09-05T04:35:30.683Z,86.75
2018-09-05T04:36:30.624Z,86.49
2018-09-05T04:37:30.615Z,86.95
2018-09-05T04:38:30.597Z,86.49
2018-09-05T04:39:30.588Z,86.79
2018-09-05T04:40:30.623Z,86.89
2018-09-05T04:41:30.568Z,87.05
2018-09-05T04:42:30.555Z,86.75
2018-09-05T04:43:30.541Z,86.55
2018-09-05T04:44:30.551Z,86.49
2018-09-05T04:45:30.565Z,86.35
2018-09-05T04:46:30.511Z,86.35
2018-09-05T04:47:30.497Z,86.24
2018-09-05T04:48:30.483Z,86.10
2018-09-05T04:49:30.472Z,86.35
2018-09-05T04:50:30.462Z,85.80
2018-09-05T04:51:30.496Z,85.94
2018-09-05T04:52:30.514Z,85.90
2018-09-05T04:53:30.429Z,86.21
2018-09-05T04:54:30.412Z,86.30
2018-09-05T04:55:30.405Z,86.21
2018-09-05T04:56:30.434Z,85.80
2018-09-05T04:57:30.378Z,86.35
2018-09-05T04:58:30.462Z,85.90
2018-09-05T04:59:30.358Z,86.21
2018-09-05T05:00:30.346Z,86.15
2018-09-05T05:01:30.379Z,86.10
2018-09-05T05:02:30.338Z,86.04
2018-09-05T05:03:30.316Z,86.10
2018-09-05T05:04:30.305Z,86.00
2018-09-05T05:05:30.327Z,85.90
2018-09-05T05:06:30.332Z,86.21
2018-09-05T05:07:30.265Z,85.50
2018-09-05T05:08:30.257Z,86.21
2018-09-05T05:09:30.244Z,85.30
2018-09-05T05:10:30.231Z,85.00
2018-09-05T05:11:30.269Z,85.54
2018-09-05T05:12:30.267Z,86.30
2018-09-05T05:13:30.196Z,86.15
2018-09-05T05:14:30.190Z,85.10
2018-09-05T05:15:30.178Z,85.54
2018-09-05T05:16:30.209Z,85.24
2018-09-05T05:17:30.151Z,84.89
2018-09-05T05:18:30.138Z,84.83
2018-09-05T05:19:30.180Z,85.10
2018-09-05T05:20:30.121Z,84.59
2018-09-05T05:21:30.151Z,84.59
2018-09-05T05:22:30.106Z,84.29
2018-09-05T05:23:30.125Z,84.69
2018-09-05T05:24:30.071Z,84.80
2018-09-05T05:25:30.062Z,84.89
2018-09-05T05:26:30.163Z,84.83
2018-09-05T05:27:30.037Z,84.80
2018-09-05T05:28:30.026Z,84.49
2018-09-05T05:29:30.019Z,84.59
2018-09-05T05:30:30.003Z,84.49
2018-09-05T05:31:30.034Z,84.49
2018-09-05T05:32:30.037Z,84.49
2018-09-05T05:33:29.968Z,84.49
2018-09-05T05:34:29.954Z,84.69
2018-09-05T05:35:29.945Z,84.59
2018-09-05T05:36:29.978Z,84.19
2018-09-05T05:37:29.923Z,83.99
2018-09-05T05:38:29.920Z,83.69
2018-09-05T05:39:29.901Z,84.39
2018-09-05T05:40:29.888Z,84.53
2018-09-05T05:41:29.921Z,84.39
2018-09-05T05:42:29.865Z,83.39
2018-09-05T05:43:29.855Z,83.48
2018-09-05T05:44:29.841Z,83.04
2018-09-05T05:45:29.831Z,82.54
2018-09-05T05:46:29.866Z,81.90
2018-09-05T05:47:29.822Z,81.70
2018-09-05T05:48:29.802Z,81.59
2018-09-05T05:49:29.789Z,81.70
2018-09-05T05:50:29.771Z,81.90
2018-09-05T05:51:29.811Z,81.90
2018-09-05T05:52:29.752Z,81.79
2018-09-05T05:53:29.740Z,81.39
2018-09-05T05:54:29.736Z,81.49
2018-09-05T05:55:29.717Z,80.79
2018-09-05T05:56:29.752Z,81.39
2018-09-05T05:57:29.700Z,80.99
2018-09-05T05:58:29.684Z,81.29
2018-09-05T05:59:29.670Z,81.29
2018-09-05T06:00:29.660Z,80.99
2018-09-05T06:01:29.702Z,80.49
2018-09-05T06:02:30.218Z,81.09
2018-09-05T06:03:29.626Z,80.79
2018-09-05T06:04:29.617Z,81.09
2018-09-05T06:05:29.607Z,81.15
2018-09-05T06:06:29.785Z,81.05
2018-09-05T06:07:29.582Z,80.45
2018-09-05T06:08:29.584Z,80.45
2018-09-05T06:09:29.565Z,80.65
2018-09-05T06:10:29.568Z,79.85
2018-09-05T06:11:29.581Z,79.74
2018-09-05T06:12:29.529Z,79.14
2018-09-05T06:13:29.516Z,79.44
2018-09-05T06:14:29.511Z,79.35
2018-09-05T06:15:29.518Z,80.01
2018-09-05T06:16:29.528Z,79.85
2018-09-05T06:17:29.483Z,79.74
2018-09-05T06:18:29.458Z,79.00
2018-09-05T06:19:29.447Z,79.21
2018-09-05T06:20:29.438Z,78.80
2018-09-05T06:21:29.493Z,78.40
2018-09-05T06:22:29.415Z,78.10
2018-09-05T06:23:29.403Z,78.40
2018-09-05T06:24:29.460Z,78.46
2018-09-05T06:25:29.382Z,78.27
2018-09-05T06:26:29.420Z,77.96
2018-09-05T06:27:29.356Z,77.86
2018-09-05T06:28:29.352Z,78.20
2018-09-05T06:29:29.339Z,77.76
2018-09-05T06:30:29.369Z,78.06
2018-09-05T06:31:29.368Z,77.76
2018-09-05T06:32:29.301Z,78.00
2018-09-05T06:33:29.291Z,77.86
2018-09-05T06:34:29.277Z,77.76
2018-09-05T06:35:29.269Z,77.96
2018-09-05T06:36:29.302Z,77.76
2018-09-05T06:37:29.245Z,77.86
2018-09-05T06:38:29.240Z,77.06
2018-09-05T06:39:29.223Z,77.16
2018-09-05T06:40:29.208Z,76.76
2018-09-05T06:41:29.252Z,77.16
2018-09-05T06:42:29.190Z,77.62
2018-09-05T06:43:29.176Z,76.92
2018-09-05T06:44:29.165Z,76.62
2018-09-05T06:45:29.166Z,76.52
2018-09-05T06:46:29.241Z,75.98
2018-09-05T06:47:29.140Z,75.48
2018-09-05T06:48:29.120Z,74.64
2018-09-05T06:49:29.110Z,73.47
2018-09-05T06:50:29.097Z,72.50
2018-09-05T06:51:29.248Z,71.06
2018-09-05T06:52:29.077Z,69.39
2018-09-05T06:53:29.062Z,68.29
2018-09-05T06:54:29.049Z,67.56
2018-09-05T06:55:29.041Z,67.23
2018-09-05T06:56:29.079Z,66.63
2018-09-05T06:57:29.016Z,66.83
2018-09-05T06:58:29.014Z,66.33
2018-09-05T06:59:28.995Z,66.00
2018-09-05T07:00:28.984Z,65.80
2018-09-05T07:01:29.018Z,65.60
2018-09-05T07:02:28.966Z,66.00
2018-09-05T07:03:28.990Z,66.00
2018-09-05T07:04:28.953Z,66.00
2018-09-05T07:05:28.930Z,65.80
2018-09-05T07:06:29.259Z,66.20
2018-09-05T07:07:28.904Z,66.63
2018-09-05T07:08:28.895Z,67.23
2018-09-05T07:09:28.888Z,67.03
2018-09-05T07:10:28.871Z,66.09
2018-09-05T07:11:28.952Z,66.60
2018-09-05T07:12:28.852Z,67.23
2018-09-05T07:13:28.836Z,67.76
2018-09-05T07:14:28.888Z,68.39
2018-09-05T07:15:28.814Z,68.46
2018-09-05T07:16:28.806Z,69.19
2018-09-05T07:17:28.884Z,69.49
2018-09-05T07:18:29.702Z,69.93
2018-09-05T07:19:28.769Z,69.82
2018-09-05T07:20:28.786Z,69.82
2018-09-05T07:21:28.927Z,70.23
2018-09-05T07:22:28.789Z,70.32
2018-09-05T07:23:28.731Z,70.32
2018-09-05T07:24:28.712Z,70.83
2018-09-05T07:25:28.706Z,70.62
2018-09-05T07:26:28.686Z,70.43
2018-09-05T07:27:28.786Z,70.23
2018-09-05T07:28:28.664Z,70.73
2018-09-05T07:29:28.651Z,70.53
2018-09-05T07:30:28.748Z,70.53
2018-09-05T07:31:28.636Z,70.96
2018-09-05T07:32:28.664Z,71.16
2018-09-05T07:33:28.628Z,71.12
2018-09-05T07:34:28.595Z,71.06
2018-09-05T07:35:28.627Z,71.62
2018-09-05T07:36:28.573Z,71.66
2018-09-05T07:37:28.610Z,71.66
2018-09-05T07:38:28.553Z,71.66
2018-09-05T07:39:28.539Z,71.56
2018-09-05T07:40:28.525Z,71.76
2018-09-05T07:41:28.518Z,71.66
2018-09-05T07:42:28.546Z,71.46
2018-09-05T07:43:28.492Z,70.86
2018-09-05T07:44:28.484Z,71.26
2018-09-05T07:45:28.469Z,71.06
2018-09-05T07:46:28.458Z,71.46
2018-09-05T07:47:28.499Z,71.16
2018-09-05T07:48:28.433Z,71.16
2018-09-05T07:49:28.422Z,71.16
2018-09-05T07:50:28.437Z,70.53
2018-09-05T07:51:28.403Z,70.53
2018-09-05T07:52:28.434Z,70.23
2018-09-05T07:53:28.379Z,70.46
2018-09-05T07:54:28.365Z,70.96
2018-09-05T07:55:28.354Z,70.92
2018-09-05T07:56:28.344Z,70.92
2018-09-05T07:57:28.378Z,70.49
2018-09-05T07:58:28.326Z,70.39
2018-09-05T07:59:28.306Z,69.69
2018-09-05T08:00:28.295Z,68.76
2018-09-05T08:01:28.296Z,67.93
2018-09-05T08:02:28.320Z,67.19
2018-09-05T08:03:28.298Z,66.30
2018-09-05T08:04:28.250Z,66.17
2018-09-05T08:05:28.238Z,65.56
2018-09-05T08:06:28.230Z,65.56
2018-09-05T08:07:28.288Z,65.64
2018-09-05T08:08:28.218Z,65.56
2018-09-05T08:09:28.219Z,65.97
2018-09-05T08:10:28.182Z,66.06
2018-09-05T08:11:28.174Z,66.09
2018-09-05T08:12:28.206Z,66.09
2018-09-05T08:13:28.150Z,65.87
2018-09-05T08:14:28.137Z,65.87
2018-09-05T08:15:28.137Z,66.27
2018-09-05T08:16:28.119Z,66.00
2018-09-05T08:17:28.152Z,66.30
2018-09-05T08:18:28.101Z,66.39
2018-09-05T08:19:28.094Z,66.50
2018-09-05T08:20:28.071Z,65.97
2018-09-05T08:21:28.066Z,66.27
2018-09-05T08:22:28.092Z,66.20
2018-09-05T08:23:28.042Z,66.00
2018-09-05T08:24:28.089Z,66.30
2018-09-05T08:25:28.015Z,66.30
2018-09-05T08:26:28.004Z,66.00
2018-09-05T08:27:28.039Z,66.00
2018-09-05T08:28:28.008Z,65.87
2018-09-05T08:29:27.971Z,65.97
2018-09-05T08:30:27.959Z,65.64
2018-09-05T08:31:27.962Z,64.54
2018-09-05T08:32:27.983Z,64.51
2018-09-05T08:33:27.924Z,64.31
2018-09-05T08:34:27.912Z,65.44
2018-09-05T08:35:28.136Z,64.14
2018-09-05T08:36:28.297Z,65.34
2018-09-05T08:37:28.158Z,65.34
2018-09-05T08:38:28.018Z,65.97
2018-09-05T08:39:27.860Z,66.03
2018-09-05T08:40:27.846Z,65.94
2018-09-05T08:41:27.914Z,65.94
2018-09-05T08:42:27.940Z,65.94
2018-09-05T08:43:27.843Z,66.03
2018-09-05T08:44:27.875Z,65.04
2018-09-05T08:45:28.392Z,64.31
2018-09-05T08:46:27.790Z,64.61
2018-09-05T08:47:27.915Z,64.61
2018-09-05T08:48:27.899Z,64.51
2018-09-05T08:49:27.763Z,64.71
2018-09-05T08:50:27.736Z,64.37
2018-09-05T08:51:27.722Z,64.28
2018-09-05T08:52:27.882Z,64.01
2018-09-05T08:53:27.707Z,64.18
2018-09-05T08:54:27.694Z,63.88
2018-09-05T08:55:27.736Z,63.68
2018-09-05T08:56:27.676Z,63.58
2018-09-05T08:57:27.771Z,63.98
2018-09-05T08:58:27.645Z,63.58
2018-09-05T08:59:27.636Z,63.88
2018-09-05T09:00:27.628Z,63.78
2018-09-05T09:01:27.614Z,63.98
2018-09-05T09:02:27.648Z,63.78
2018-09-05T09:03:27.647Z,63.65
2018-09-05T09:04:27.619Z,63.05
2018-09-05T09:05:27.567Z,62.75
2018-09-05T09:06:27.556Z,63.05
2018-09-05T09:07:27.593Z,62.65
2018-09-05T09:08:27.537Z,62.75
2018-09-05T09:09:27.525Z,62.15
2018-09-05T09:10:27.511Z,63.35
2018-09-05T09:11:27.506Z,63.25
2018-09-05T09:12:27.533Z,63.45
2018-09-05T09:13:27.486Z,62.65
2018-09-05T09:14:27.493Z,62.15
2018-09-05T09:15:27.460Z,62.45
2018-09-05T09:16:27.447Z,62.95
2018-09-05T09:17:27.478Z,62.42
2018-09-05T09:18:27.424Z,62.02
2018-09-05T09:19:27.410Z,61.53
2018-09-05T09:20:27.398Z,61.23
2018-09-05T09:21:27.390Z,61.33
2018-09-05T09:22:27.421Z,61.00
2018-09-05T09:23:27.367Z,61.20
2018-09-05T09:24:27.376Z,61.00
2018-09-05T09:25:27.342Z,60.21
2018-09-05T09:26:27.334Z,60.40
2018-09-05T09:27:27.367Z,59.81
2018-09-05T09:28:27.322Z,58.75
2018-09-05T09:29:27.302Z,58.30
2018-09-05T09:30:27.302Z,56.56
2018-09-05T09:31:27.276Z,56.13
2018-09-05T09:32:27.324Z,55.54
2018-09-05T09:33:27.263Z,55.74
2018-09-05T09:34:27.248Z,56.56
2018-09-05T09:35:27.315Z,57.58
2018-09-05T09:36:27.223Z,57.60
2018-09-05T09:37:27.210Z,57.21
2018-09-05T09:38:27.252Z,57.60
2018-09-05T09:39:27.190Z,57.81
2018-09-05T09:40:27.176Z,57.70
2018-09-05T09:41:27.169Z,58.00
2018-09-05T09:42:27.158Z,58.10
2018-09-05T09:43:27.193Z,58.00
2018-09-05T09:44:27.135Z,58.30
2018-09-05T09:45:27.119Z,57.81
2018-09-05T09:46:27.115Z,58.00
2018-09-05T09:47:27.106Z,58.62
2018-09-05T09:48:27.132Z,59.03
2018-09-05T09:49:27.077Z,59.12
2018-09-05T09:50:27.072Z,58.92
2018-09-05T09:51:27.051Z,58.80
2018-09-05T09:52:27.055Z,58.20
2018-09-05T09:53:27.077Z,57.85
2018-09-05T09:54:27.017Z,58.17
2018-09-05T09:55:27.014Z,57.38
2018-09-05T09:56:27.006Z,58.17
2018-09-05T09:57:26.984Z,58.37
2018-09-05T09:58:27.027Z,57.87
2018-09-05T09:59:27.000Z,57.48
2018-09-05T10:00:26.953Z,56.09
2018-09-05T10:01:26.940Z,56.09
2018-09-05T10:02:26.928Z,56.16
2018-09-05T10:03:27.083Z,56.16
2018-09-05T10:04:26.907Z,55.96
2018-09-05T10:05:26.893Z,56.06
2018-09-05T10:06:26.888Z,56.06
2018-09-05T10:07:26.872Z,56.06
2018-09-05T10:08:26.906Z,56.16
2018-09-05T10:09:26.851Z,55.96
2018-09-05T10:10:26.843Z,56.06
2018-09-05T10:11:26.829Z,56.36
2018-09-05T10:12:26.814Z,55.96
2018-09-05T10:13:26.849Z,55.57
2018-09-05T10:14:26.800Z,56.09
2018-09-05T10:15:26.785Z,56.09
2018-09-05T10:16:26.771Z,56.38
2018-09-05T10:17:26.778Z,56.19
2018-09-05T10:18:26.799Z,56.32
2018-09-05T10:19:26.741Z,56.59
2018-09-05T10:20:26.727Z,56.98
2018-09-05T10:21:26.731Z,56.38
2018-09-05T10:22:26.825Z,56.76
2018-09-05T10:23:27.592Z,56.06
2018-09-05T10:24:27.357Z,56.36
2018-09-05T10:25:26.670Z,56.34
2018-09-05T10:26:26.663Z,56.04
2018-09-05T10:27:26.870Z,55.54
2018-09-05T10:28:26.881Z,55.15
2018-09-05T10:29:27.450Z,55.41
2018-09-05T10:30:26.722Z,55.11
2018-09-05T10:31:26.602Z,55.02
2018-09-05T10:32:26.703Z,54.52
2018-09-05T10:33:26.695Z,53.43
2018-09-05T10:34:26.568Z,53.63
2018-09-05T10:35:26.560Z,53.73
2018-09-05T10:36:26.549Z,54.62
2018-09-05T10:37:26.567Z,53.90
2018-09-05T10:38:26.644Z,53.50
2018-09-05T10:39:26.525Z,53.80
2018-09-05T10:40:26.500Z,53.18
2018-09-05T10:41:29.542Z,53.08
2018-09-05T10:42:26.475Z,52.98
2018-09-05T10:43:26.509Z,52.46
2018-09-05T10:44:26.610Z,51.89
2018-09-05T10:45:26.445Z,51.77
2018-09-05T10:46:26.436Z,51.97
2018-09-05T10:47:26.439Z,51.18
2018-09-05T10:48:26.468Z,49.99
2018-09-05T10:49:26.422Z,49.66
2018-09-05T10:50:26.389Z,50.43
2018-09-05T10:51:26.434Z,50.34
2018-09-05T10:52:26.369Z,49.64
2018-09-05T10:53:26.355Z,49.74
2018-09-05T10:54:26.392Z,49.27
2018-09-05T10:55:26.344Z,48.58
2018-09-05T10:56:26.322Z,48.38
2018-09-05T10:57:26.346Z,48.77
2018-09-05T10:58:26.320Z,49.07
2018-09-05T10:59:26.335Z,49.27
2018-09-05T11:00:26.280Z,49.37
2018-09-05T11:01:26.267Z,49.10
2018-09-05T11:02:26.254Z,50.18
2018-09-05T11:03:26.248Z,48.70
2018-09-05T11:04:26.286Z,49.29
2018-09-05T11:05:26.220Z,49.40
2018-09-05T11:06:26.221Z,50.38
2018-09-05T11:07:26.198Z,49.99
2018-09-05T11:08:26.187Z,49.69
2018-09-05T11:09:26.227Z,49.00
2018-09-05T11:10:26.172Z,48.90
2018-09-05T11:11:26.155Z,49.99
2018-09-05T11:12:26.160Z,49.96
2018-09-05T11:13:26.136Z,49.27
2018-09-05T11:14:26.180Z,48.68
2018-09-05T11:15:26.110Z,49.07
2018-09-05T11:16:26.098Z,48.97
2018-09-05T11:17:26.089Z,49.37
2018-09-05T11:18:26.081Z,49.37
2018-09-05T11:19:26.120Z,48.68
2018-09-05T11:20:26.056Z,48.65
2018-09-05T11:21:26.045Z,48.06
2018-09-05T11:22:26.033Z,48.16
2018-09-05T11:23:26.042Z,47.39
2018-09-05T11:24:26.070Z,48.18
2018-09-05T11:25:26.004Z,47.99
2018-09-05T11:26:25.988Z,48.77
2018-09-05T11:27:25.979Z,48.75
2018-09-05T11:28:25.976Z,48.26
2018-09-05T11:29:25.999Z,46.88
2018-09-05T11:30:25.945Z,47.77
2018-09-05T11:31:25.945Z,47.27
2018-09-05T11:32:25.922Z,46.97
2018-09-05T11:33:25.912Z,46.97
2018-09-05T11:34:25.908Z,47.27
2018-09-05T11:35:25.937Z,48.16
2018-09-05T11:36:25.877Z,48.36
2018-09-05T11:37:25.871Z,47.86
2018-09-05T11:38:25.855Z,47.56
2018-09-05T11:39:25.855Z,47.37
2018-09-05T11:40:25.906Z,47.27
2018-09-05T11:41:25.837Z,47.27
2018-09-05T11:42:25.811Z,47.56
2018-09-05T11:43:25.813Z,46.88
2018-09-05T11:44:25.799Z,47.66
2018-09-05T11:45:25.826Z,46.97
2018-09-05T11:46:25.771Z,46.75
2018-09-05T11:47:25.768Z,46.78
2018-09-05T11:48:25.745Z,47.66
2018-09-05T11:49:25.742Z,47.59
2018-09-05T11:50:25.771Z,47.19
2018-09-05T11:51:25.711Z,47.19
2018-09-05T11:52:25.713Z,46.89
2018-09-05T11:53:25.690Z,47.09
2018-09-05T11:54:25.684Z,47.29
2018-09-05T11:55:25.725Z,47.39
2018-09-05T11:56:25.659Z,47.69
2018-09-05T11:57:25.674Z,47.78
2018-09-05T11:58:25.639Z,47.09
2018-09-05T11:59:25.625Z,47.66
2018-09-05T12:00:25.696Z,47.66
2018-09-05T12:01:25.605Z,46.88
2018-09-05T12:02:25.593Z,47.05
2018-09-05T12:03:25.584Z,46.85
2018-09-05T12:04:25.569Z,46.75
2018-09-05T12:05:25.602Z,45.86
2018-09-05T12:06:25.549Z,46.06
2018-09-05T12:07:25.536Z,46.85
2018-09-05T12:08:25.528Z,46.75
2018-09-05T12:09:25.526Z,45.86
2018-09-05T12:10:25.551Z,46.93
2018-09-05T12:11:25.494Z,46.75
2018-09-05T12:12:25.483Z,46.26
2018-09-05T12:13:25.469Z,46.85
2018-09-05T12:14:25.459Z,46.95
2018-09-05T12:15:25.563Z,46.45
2018-09-05T12:16:25.438Z,47.15
2018-09-05T12:17:25.428Z,46.26
2018-09-05T12:18:25.423Z,45.52
2018-09-05T12:19:25.454Z,44.54
2018-09-05T12:20:25.450Z,44.65
2018-09-05T12:21:25.382Z,44.78
2018-09-05T12:22:25.440Z,46.06
2018-09-05T12:23:25.368Z,45.67
2018-09-05T12:24:25.351Z,45.86
2018-09-05T12:25:25.373Z,45.57
2018-09-05T12:26:25.387Z,46.06
2018-09-05T12:27:25.317Z,46.06
2018-09-05T12:28:25.342Z,46.06
2018-09-05T12:29:25.330Z,45.67
2018-09-05T12:30:25.284Z,46.26
2018-09-05T12:31:25.324Z,45.96
2018-09-05T12:32:25.261Z,45.72
2018-09-05T12:33:25.252Z,42.99
2018-09-05T12:34:25.242Z,41.55
2018-09-05T12:35:25.234Z,40.21
2018-09-05T12:36:25.274Z,39.90
2018-09-05T12:37:25.212Z,39.37
2018-09-05T12:38:25.331Z,37.76
2018-09-05T12:39:25.182Z,37.05
2018-09-05T12:40:25.209Z,37.21
2018-09-05T12:41:25.213Z,36.61
2018-09-05T12:42:25.150Z,35.52
2018-09-05T12:43:25.188Z,35.52
2018-09-05T12:44:25.134Z,36.82
2018-09-05T12:45:25.118Z,37.56
2018-09-05T12:46:25.158Z,37.74
2018-09-05T12:47:25.095Z,36.24
2018-09-05T12:48:25.085Z,36.53
2018-09-05T12:49:25.075Z,36.02
2018-09-05T12:50:25.067Z,36.32
2018-09-05T12:51:25.099Z,35.71
2018-09-05T12:52:25.050Z,34.54
2018-09-05T12:53:25.031Z,35.89
2018-09-05T12:54:25.021Z,34.42
2018-09-05T12:55:25.023Z,34.50
2018-09-05T12:56:25.049Z,34.58
2018-09-05T12:57:24.990Z,34.78
2018-09-05T12:58:24.982Z,34.62
2018-09-05T12:59:25.008Z,35.32
2018-09-05T13:00:24.960Z,35.65
2018-09-05T13:01:24.992Z,36.45
2018-09-05T13:02:24.956Z,37.07
2018-09-05T13:03:24.924Z,37.29
2018-09-05T13:04:25.038Z,37.21
2018-09-05T13:05:24.928Z,37.99
2018-09-05T13:06:24.966Z,37.84
2018-09-05T13:07:24.887Z,38.74
2018-09-05T13:08:24.886Z,39.47
2018-09-05T13:09:24.866Z,40.17
2018-09-05T13:10:24.864Z,40.19
2018-09-05T13:11:24.909Z,40.48
2018-09-05T13:12:24.825Z,40.80
2018-09-05T13:13:24.848Z,40.72
2018-09-05T13:14:24.809Z,41.43
2018-09-05T13:15:24.793Z,42.61
2018-09-05T13:16:24.846Z,42.44
2018-09-05T13:17:24.771Z,43.23
2018-09-05T13:18:24.765Z,42.83
2018-09-05T13:19:24.760Z,43.03
2018-09-05T13:20:24.772Z,43.43
2018-09-05T13:21:24.781Z,43.52
2018-09-05T13:22:24.718Z,43.03
2018-09-05T13:23:24.706Z,42.83
2018-09-05T13:24:24.697Z,42.83
2018-09-05T13:25:24.684Z,43.43
2018-09-05T13:26:24.719Z,43.03
2018-09-05T13:27:24.660Z,43.25
2018-09-05T13:28:24.649Z,43.62
2018-09-05T13:29:24.644Z,44.14
2018-09-05T13:30:24.629Z,44.04
2018-09-05T13:31:24.666Z,44.04
2018-09-05T13:32:24.607Z,44.24
2018-09-05T13:33:24.610Z,44.24
2018-09-05T13:34:24.589Z,43.45
2018-09-05T13:35:24.593Z,43.05
2018-09-05T13:36:24.614Z,43.05
2018-09-05T13:37:24.560Z,42.85
2018-09-05T13:38:24.541Z,43.45
2018-09-05T13:39:24.531Z,43.05
2018-09-05T13:40:24.522Z,43.05
2018-09-05T13:41:24.564Z,42.66
2018-09-05T13:42:24.499Z,41.79
2018-09-05T13:43:24.489Z,43.15
2018-09-05T13:44:24.476Z,43.52
2018-09-05T13:45:24.469Z,43.05
2018-09-05T13:46:24.511Z,41.75
2018-09-05T13:47:24.445Z,42.34
2018-09-05T13:48:24.431Z,42.54
2018-09-05T13:49:24.422Z,42.54
2018-09-05T13:50:24.409Z,42.13
2018-09-05T13:51:24.441Z,42.34
2018-09-05T13:52:24.388Z,42.05